createdAt,value
2022-09-15T00:00:18.179Z,58.79
2022-09-15T00:01:22.635Z,58.87
2022-09-15T00:02:27.224Z,59.05
2022-09-15T00:03:31.549Z,58.7
2022-09-15T00:04:35.742Z,59.03
2022-09-15T00:05:39.951Z,59.13
2022-09-15T00:06:44.135Z,58.36
2022-09-15T00:07:48.338Z,58.89
2022-09-15T00:08:52.624Z,58.74
2022-09-15T00:09:56.849Z,59.18
2022-09-15T00:11:02.056Z,58.81
2022-09-15T00:12:06.251Z,59.13
2022-09-15T00:13:10.448Z,59.07
2022-09-15T00:14:14.662Z,58.91
2022-09-15T00:15:18.867Z,59.26
2022-09-15T00:16:23.247Z,59.18
2022-09-15T00:17:27.497Z,59.21
2022-09-15T00:18:31.736Z,58.84
2022-09-15T00:19:35.956Z,58.25
2022-09-15T00:20:40.156Z,59.06
2022-09-15T00:21:44.331Z,59.05
2022-09-15T00:22:48.511Z,59
2022-09-15T00:23:52.723Z,58.98
2022-09-15T00:24:56.910Z,59.12
2022-09-15T00:26:01.074Z,59.29
2022-09-15T00:27:05.269Z,59.18
2022-09-15T00:28:09.467Z,59.26
2022-09-15T00:29:13.667Z,59.26
2022-09-15T00:30:17.956Z,59.24
2022-09-15T00:31:22.499Z,58.17
2022-09-15T00:32:26.749Z,58.93
2022-09-15T00:33:30.973Z,58.97
2022-09-15T00:34:35.140Z,58.71
2022-09-15T00:35:39.376Z,58.25
2022-09-15T00:36:43.619Z,58.69
2022-09-15T00:37:47.818Z,58.69
2022-09-15T00:38:52.026Z,59.11
2022-09-15T00:39:56.380Z,59.17
2022-09-15T00:41:00.564Z,58.87
2022-09-15T00:42:04.747Z,59.32
2022-09-15T00:43:08.941Z,58.03
2022-09-15T00:44:13.167Z,59.16
2022-09-15T00:45:17.341Z,58.96
2022-09-15T00:46:21.944Z,59.29
2022-09-15T00:47:27.219Z,58.59
2022-09-15T00:48:31.431Z,58.85
2022-09-15T00:49:35.597Z,58.15
2022-09-15T00:50:39.787Z,58.8
2022-09-15T00:51:43.972Z,59.05
2022-09-15T00:52:48.236Z,59.17
2022-09-15T00:53:52.876Z,59.08
2022-09-15T00:54:57.129Z,59.22
2022-09-15T00:56:01.339Z,59.28
2022-09-15T00:57:05.522Z,59.18
2022-09-15T00:58:09.742Z,59.19
2022-09-15T00:59:13.962Z,59.19
2022-09-15T01:00:18.169Z,58.59
2022-09-15T01:01:22.627Z,59.36
2022-09-15T01:02:27.095Z,59.34
2022-09-15T01:03:34.105Z,59.34
2022-09-15T01:04:38.365Z,58.83
2022-09-15T01:05:42.570Z,59.41
2022-09-15T01:06:46.763Z,59.32
2022-09-15T01:07:50.928Z,59.35
2022-09-15T01:08:55.138Z,59.36
2022-09-15T01:09:59.342Z,59.29
2022-09-15T01:11:03.525Z,58.58
2022-09-15T01:12:07.721Z,58.37
2022-09-15T01:13:11.918Z,58.46
2022-09-15T01:14:16.106Z,59.03
2022-09-15T01:15:20.278Z,59.19
2022-09-15T01:16:24.675Z,58.77
2022-09-15T01:17:28.919Z,58.3
2022-09-15T01:18:33.325Z,58.23
2022-09-15T01:19:37.536Z,58.26
2022-09-15T01:20:41.731Z,58.09
2022-09-15T01:21:45.961Z,58.13
2022-09-15T01:22:50.181Z,57.96
2022-09-15T01:23:54.468Z,58.14
2022-09-15T01:24:58.684Z,58.26
2022-09-15T01:26:02.902Z,58.25
2022-09-15T01:27:43.445Z,58.19
2022-09-15T01:28:47.642Z,57.95
2022-09-15T01:29:51.847Z,58.32
2022-09-15T01:30:56.038Z,58.65
2022-09-15T01:32:00.414Z,58.56
2022-09-15T01:33:04.642Z,58.3
2022-09-15T01:34:08.831Z,58.21
2022-09-15T01:35:13.035Z,58.04
2022-09-15T01:36:18.246Z,58.71
2022-09-15T01:37:22.439Z,58.24
2022-09-15T01:38:26.717Z,58.95
2022-09-15T01:39:30.888Z,58.69
2022-09-15T01:40:35.290Z,58.99
2022-09-15T01:41:39.492Z,58.86
2022-09-15T01:42:43.749Z,58.37
2022-09-15T01:43:47.990Z,58.89
2022-09-15T01:44:52.174Z,58.76
2022-09-15T01:45:56.553Z,58.36
2022-09-15T01:47:00.819Z,58.12
2022-09-15T01:48:04.998Z,58.76
2022-09-15T01:49:09.202Z,57.89
2022-09-15T01:50:13.410Z,58.82
2022-09-15T01:51:17.583Z,58.58
2022-09-15T01:52:21.789Z,58.41
2022-09-15T01:53:26.002Z,58.62
2022-09-15T01:54:30.192Z,58.86
2022-09-15T01:55:34.399Z,58.68
2022-09-15T01:56:38.602Z,58.54
2022-09-15T01:57:42.811Z,58.16
2022-09-15T01:58:47.040Z,58.2
2022-09-15T01:59:51.229Z,58.45
2022-09-15T02:00:55.574Z,58.65
2022-09-15T02:02:00.102Z,58.06
2022-09-15T02:03:04.399Z,58.69
2022-09-15T02:04:08.608Z,58.45
2022-09-15T02:05:12.830Z,58.81
2022-09-15T02:06:17.031Z,57.81
2022-09-15T02:07:21.251Z,58.21
2022-09-15T02:08:25.500Z,58.75
2022-09-15T02:09:29.716Z,57.82
2022-09-15T02:10:33.921Z,57.88
2022-09-15T02:11:38.107Z,58.7
2022-09-15T02:12:42.324Z,58.45
2022-09-15T02:13:46.558Z,58.45
2022-09-15T02:14:50.736Z,58.6
2022-09-15T02:15:54.951Z,58.48
2022-09-15T02:16:59.158Z,58.3
2022-09-15T02:18:03.382Z,58.15
2022-09-15T02:19:07.692Z,57.67
2022-09-15T02:20:11.871Z,57.89
2022-09-15T02:21:16.073Z,58.05
2022-09-15T02:22:20.298Z,58.31
2022-09-15T02:23:24.513Z,57.84
2022-09-15T02:24:28.785Z,57.68
2022-09-15T02:25:32.987Z,57.92
2022-09-15T02:26:37.189Z,58.16
2022-09-15T02:27:41.403Z,58.01
2022-09-15T02:28:45.664Z,57.79
2022-09-15T02:29:49.906Z,57.81
2022-09-15T02:30:56.456Z,57.88
2022-09-15T02:32:07.337Z,58.24
2022-09-15T02:33:11.728Z,57.73
2022-09-15T02:34:15.980Z,58.04
2022-09-15T02:35:20.200Z,57.95
2022-09-15T02:36:24.399Z,58.2
2022-09-15T02:37:28.599Z,58.34
2022-09-15T02:38:32.814Z,57.78
2022-09-15T02:39:37.012Z,57.9
2022-09-15T02:40:41.230Z,58.17
2022-09-15T02:41:45.429Z,58.09
2022-09-15T02:42:49.887Z,57.73
2022-09-15T02:43:54.227Z,57.78
2022-09-15T02:44:58.445Z,57.76
2022-09-15T02:46:02.952Z,58.1
2022-09-15T02:47:07.153Z,57.57
2022-09-15T02:48:11.414Z,57.73
2022-09-15T02:49:15.592Z,58.1
2022-09-15T02:50:19.785Z,58.17
2022-09-15T02:51:23.991Z,58.31
2022-09-15T02:52:28.202Z,58.26
2022-09-15T02:53:32.411Z,58.24
2022-09-15T02:54:36.646Z,58.29
2022-09-15T02:55:40.855Z,58.26
2022-09-15T02:56:45.022Z,58.2
2022-09-15T02:57:49.224Z,57.76
2022-09-15T02:58:53.490Z,57.97
2022-09-15T02:59:57.734Z,57.67
2022-09-15T03:01:03.111Z,57.51
2022-09-15T03:02:07.579Z,58.11
2022-09-15T03:03:11.780Z,58.01
2022-09-15T03:04:15.994Z,58.22
2022-09-15T03:05:20.268Z,57.75
2022-09-15T03:06:24.478Z,58.15
2022-09-15T03:07:28.650Z,58.09
2022-09-15T03:08:32.858Z,58.04
2022-09-15T03:09:37.049Z,57.96
2022-09-15T03:10:41.290Z,57.99
2022-09-15T03:11:45.497Z,57.95
2022-09-15T03:12:49.699Z,58.08
2022-09-15T03:13:54.099Z,57.81
2022-09-15T03:14:58.290Z,57.95
2022-09-15T03:16:02.625Z,58.01
2022-09-15T03:17:06.874Z,58.01
2022-09-15T03:18:11.080Z,57.95
2022-09-15T03:19:15.317Z,57.64
2022-09-15T03:20:19.532Z,57.92
2022-09-15T03:21:23.737Z,58.14
2022-09-15T03:22:27.940Z,57.93
2022-09-15T03:23:32.156Z,57.94
2022-09-15T03:24:36.354Z,57.94
2022-09-15T03:25:40.561Z,57.77
2022-09-15T03:26:44.758Z,57.94
2022-09-15T03:27:48.992Z,58.05
2022-09-15T03:28:53.456Z,57.3
2022-09-15T03:29:57.717Z,57.76
2022-09-15T03:31:02.006Z,57.83
2022-09-15T03:32:06.211Z,58.06
2022-09-15T03:33:10.555Z,57.56
2022-09-15T03:34:14.768Z,57.89
2022-09-15T03:35:18.960Z,58.05
2022-09-15T03:36:23.148Z,58.14
2022-09-15T03:37:27.345Z,58.14
2022-09-15T03:38:31.522Z,58.05
2022-09-15T03:39:35.737Z,58.05
2022-09-15T03:40:39.932Z,57.85
2022-09-15T03:41:44.090Z,58.15
2022-09-15T03:42:48.288Z,57.86
2022-09-15T03:43:52.543Z,57.78
2022-09-15T03:44:56.775Z,57.98
2022-09-15T03:46:01.362Z,57.92
2022-09-15T03:47:05.677Z,57.97
2022-09-15T03:48:09.857Z,58.09
2022-09-15T03:49:14.028Z,58.09
2022-09-15T03:50:18.175Z,58.13
2022-09-15T03:51:22.408Z,58.1
2022-09-15T03:52:26.604Z,58.09
2022-09-15T03:53:30.777Z,57.95
2022-09-15T03:54:34.951Z,58.13
2022-09-15T03:55:39.168Z,57.39
2022-09-15T03:56:43.404Z,57.83
2022-09-15T03:57:47.602Z,57.9
2022-09-15T03:58:51.799Z,58.37
2022-09-15T03:59:55.985Z,58.3
2022-09-15T04:01:00.488Z,58.33
2022-09-15T04:02:05.001Z,58.24
2022-09-15T04:03:09.232Z,58.21
2022-09-15T04:04:13.493Z,58.21
2022-09-15T04:05:17.692Z,58.31
2022-09-15T04:06:21.944Z,58.25
2022-09-15T04:07:26.207Z,57.95
2022-09-15T04:08:30.404Z,58.08
2022-09-15T16:04:45.024Z,58.38
2022-09-15T16:05:49.235Z,58.03
2022-09-15T16:06:53.478Z,57.79
2022-09-15T16:07:57.702Z,57.79
2022-09-15T16:09:01.898Z,57.48
2022-09-15T16:10:06.120Z,57.89
2022-09-15T16:11:10.341Z,57.79
2022-09-15T16:12:14.587Z,57.69
2022-09-15T16:13:18.976Z,57.94
2022-09-15T16:14:23.275Z,58.02
2022-09-15T16:15:27.778Z,57.82
2022-09-15T16:16:32.223Z,58.07
2022-09-15T16:17:36.445Z,57.89
2022-09-15T16:18:40.646Z,58.08
2022-09-15T16:19:44.853Z,57.98
2022-09-15T16:20:49.100Z,58
2022-09-15T16:21:53.338Z,58
2022-09-15T16:22:57.518Z,58.11
2022-09-15T16:24:01.710Z,58.02
2022-09-15T16:25:05.886Z,58.09
2022-09-15T16:26:10.076Z,58.14
2022-09-15T16:27:14.263Z,58.28
2022-09-15T16:28:18.557Z,57.85
2022-09-15T16:29:22.829Z,57.08
2022-09-15T16:30:26.995Z,56.7
2022-09-15T16:31:31.487Z,57.04
2022-09-15T16:32:35.720Z,56.78
2022-09-15T16:33:40.272Z,56.68
2022-09-15T16:34:44.486Z,57.08
2022-09-15T16:35:48.659Z,56.75
2022-09-15T16:36:55.133Z,56.73
2022-09-15T16:37:59.373Z,56.81
2022-09-15T16:39:03.543Z,57.04
2022-09-15T16:40:07.967Z,57.34
2022-09-15T16:41:12.444Z,56.47
2022-09-15T16:42:16.651Z,57.1
2022-09-15T16:43:20.864Z,58.02
2022-09-15T16:44:25.073Z,57.58
2022-09-15T16:45:29.477Z,57.24
2022-09-15T16:46:34.238Z,57.89
2022-09-15T16:47:38.518Z,58.48
2022-09-15T16:48:42.739Z,57.83
2022-09-15T16:49:46.896Z,58.47
2022-09-15T16:51:31.513Z,58.04
2022-09-15T16:52:36.001Z,58.45
2022-09-15T16:53:40.206Z,58.45
2022-09-15T16:54:44.559Z,58.03
2022-09-15T16:55:48.864Z,58.28
2022-09-15T16:56:53.130Z,57.63
2022-09-15T16:57:57.377Z,58.67
2022-09-15T16:59:03.119Z,58.86
2022-09-15T17:00:07.461Z,58.57
2022-09-15T17:01:12.879Z,57.83
2022-09-15T17:02:17.427Z,58.14
2022-09-15T17:03:21.723Z,58.07
2022-09-15T17:04:25.992Z,58.29
2022-09-15T17:05:30.286Z,58.8
2022-09-15T17:06:34.558Z,58.61
2022-09-15T17:07:38.724Z,58.42
2022-09-15T17:08:43.001Z,58.66
2022-09-15T17:09:47.187Z,58.95
2022-09-15T17:10:51.403Z,58.23
2022-09-15T17:11:55.599Z,58.72
2022-09-15T17:12:59.775Z,58.37
2022-09-15T17:14:07.045Z,58.58
2022-09-15T17:15:11.284Z,58.5
2022-09-15T17:16:15.771Z,58.34
2022-09-15T17:17:19.998Z,58.44
2022-09-15T17:18:24.180Z,58.57
2022-09-15T17:19:28.396Z,58.52
2022-09-15T17:20:38.561Z,58.82
2022-09-15T17:21:43.555Z,58.45
2022-09-15T17:22:47.773Z,58.74
2022-09-15T17:23:52.040Z,58.79
2022-09-15T17:24:56.336Z,58.86
2022-09-15T17:26:00.527Z,58.88
2022-09-15T17:27:04.729Z,58.86
2022-09-15T17:28:08.899Z,58.92
2022-09-15T17:29:13.090Z,58.8
2022-09-15T17:30:17.376Z,59.05
2022-09-15T17:31:21.810Z,59.14
2022-09-15T17:32:26.049Z,59.07
2022-09-15T17:33:30.345Z,59.01
2022-09-15T17:34:34.695Z,58.9
2022-09-15T17:35:38.874Z,58.9
2022-09-15T17:36:43.079Z,58.82
2022-09-15T17:37:47.478Z,59.11
2022-09-15T17:38:51.831Z,59.08
2022-09-15T17:40:00.732Z,59.09
2022-09-15T17:41:04.932Z,59.2
2022-09-15T17:42:09.461Z,59.14
2022-09-15T17:43:13.644Z,58.82
2022-09-15T17:44:17.895Z,59.21
2022-09-15T17:45:22.118Z,59.04
2022-09-15T17:46:26.621Z,59.12
2022-09-15T17:47:30.919Z,59.15
2022-09-15T17:48:35.109Z,58.98
2022-09-15T17:49:39.409Z,59.04
2022-09-15T17:50:43.607Z,59.12
2022-09-15T17:51:47.859Z,59.11
2022-09-15T17:52:52.022Z,59.25
2022-09-15T17:53:56.203Z,59.11
2022-09-15T17:55:00.423Z,58.5
2022-09-15T17:56:04.632Z,59.05
2022-09-15T17:57:08.823Z,59.2
2022-09-15T17:58:12.998Z,58.83
2022-09-15T17:59:18.347Z,58.77
2022-09-15T18:00:22.534Z,58.94
2022-09-15T18:01:26.955Z,59.01
2022-09-15T18:02:31.354Z,59.03
2022-09-15T18:03:35.631Z,58.89
2022-09-15T18:04:39.902Z,59.2
2022-09-15T18:05:44.089Z,59.04
2022-09-15T18:06:48.288Z,59.01
2022-09-15T18:07:52.455Z,59.21
2022-09-15T18:08:56.688Z,59.21
2022-09-15T18:10:00.893Z,59.06
2022-09-15T18:11:05.103Z,59.03
2022-09-15T18:12:09.357Z,59.1
2022-09-15T18:13:13.528Z,59.18
2022-09-15T18:14:17.719Z,59.35
2022-09-15T18:15:21.949Z,59.36
2022-09-15T18:16:26.175Z,59.02
2022-09-15T18:17:30.452Z,59.43
2022-09-15T18:18:34.695Z,59.31
2022-09-15T18:19:38.921Z,59.46
2022-09-15T18:20:45.484Z,59.49
2022-09-15T18:21:49.690Z,59.48
2022-09-15T18:22:53.889Z,59.37
2022-09-15T18:23:58.195Z,59.24
2022-09-15T18:25:02.402Z,59.46
2022-09-15T18:26:06.657Z,59.16
2022-09-15T18:27:10.872Z,59.5
2022-09-15T18:28:15.065Z,59.22
2022-09-15T18:29:19.258Z,59.44
2022-09-15T18:30:25.707Z,59.22
2022-09-15T18:31:30.123Z,59.3
2022-09-15T18:32:34.338Z,59.56
2022-09-15T18:33:38.531Z,59.44
2022-09-15T18:34:42.724Z,59.57
2022-09-15T18:35:47.152Z,59.5
2022-09-15T18:36:52.388Z,59.33
2022-09-15T18:37:56.575Z,59.52
2022-09-15T18:39:00.784Z,59.58
2022-09-15T18:40:05.128Z,59.64
2022-09-15T18:41:09.359Z,59.29
2022-09-15T18:42:14.532Z,59.57
2022-09-15T18:43:18.717Z,59.55
2022-09-15T18:44:22.888Z,59.68
2022-09-15T18:45:27.145Z,59.6
2022-09-15T18:46:31.651Z,59.64
2022-09-15T18:47:35.883Z,59.71
2022-09-15T18:48:40.050Z,59.69
2022-09-15T18:49:44.500Z,59.22
2022-09-15T18:50:48.674Z,59.63
2022-09-15T18:51:54.042Z,59.47
2022-09-15T18:52:58.260Z,59.3
2022-09-15T18:54:04.789Z,59.5
2022-09-15T18:55:08.992Z,59.47
2022-09-15T18:56:13.171Z,59.64
2022-09-15T18:57:17.361Z,59.6
2022-09-15T18:58:21.604Z,59.7
2022-09-15T18:59:25.830Z,59.64
2022-09-15T19:00:29.997Z,59.61
2022-09-15T19:01:34.592Z,59.11
2022-09-15T19:02:39.352Z,59.33
2022-09-15T19:03:46.347Z,58.65
2022-09-15T19:04:50.586Z,59.04
2022-09-15T19:05:57.781Z,59.01
2022-09-15T19:07:01.969Z,58.9
2022-09-15T19:08:06.151Z,59.01
2022-09-15T19:09:10.323Z,59.01
2022-09-15T19:10:14.499Z,58.83
2022-09-15T19:11:18.672Z,58.9
2022-09-15T19:12:22.833Z,58.64
2022-09-15T19:13:27.034Z,58.67
2022-09-15T19:14:31.218Z,58.26
2022-09-15T19:15:35.753Z,58.33
2022-09-15T19:16:59.696Z,58.43
2022-09-15T19:18:04.027Z,58.66
2022-09-15T19:19:08.205Z,58.75
2022-09-15T19:20:12.646Z,58.74
2022-09-15T19:21:16.920Z,58.27
2022-09-15T19:22:21.475Z,58.6
2022-09-15T19:23:25.710Z,58.29
2022-09-15T19:24:29.931Z,58.2
2022-09-15T19:25:34.096Z,58.25
2022-09-15T19:26:38.372Z,58.39
2022-09-15T19:27:42.576Z,58.29
2022-09-15T19:28:46.871Z,58.42
2022-09-15T19:29:51.069Z,58.12
2022-09-15T19:30:55.470Z,58.34
2022-09-15T19:31:59.724Z,58.38
2022-09-15T19:33:03.965Z,58.38
2022-09-15T19:34:08.143Z,58.43
2022-09-15T19:35:12.328Z,58.53
2022-09-15T19:36:30.521Z,58.42
2022-09-15T19:37:34.718Z,58.61
2022-09-15T19:38:38.919Z,58.44
2022-09-15T19:39:43.125Z,58.49
2022-09-15T19:40:47.308Z,58.3
2022-09-15T19:41:51.490Z,58.48
2022-09-15T19:42:55.699Z,58.53
2022-09-15T19:43:59.861Z,58.62
2022-09-15T19:45:05.152Z,58.16
2022-09-15T19:46:09.621Z,58.41
2022-09-15T19:47:13.814Z,58.15
2022-09-15T19:48:18.003Z,58.51
2022-09-15T19:49:22.184Z,58.77
2022-09-15T19:50:26.385Z,58.58
2022-09-15T19:51:30.659Z,58.8
2022-09-15T19:52:34.833Z,58.64
2022-09-15T19:53:41.536Z,58.82
2022-09-15T19:54:45.704Z,58.87
2022-09-15T19:55:49.881Z,58.91
2022-09-15T19:56:54.100Z,58.86
2022-09-15T19:57:58.298Z,58.4
2022-09-15T19:59:02.562Z,58.79
2022-09-15T20:00:06.764Z,58.59
2022-09-15T20:01:11.135Z,59.02
2022-09-15T20:02:26.807Z,58.64
2022-09-15T20:03:33.407Z,59.09
2022-09-15T20:04:40.425Z,58.88
2022-09-15T20:05:51.756Z,59
2022-09-15T20:06:58.706Z,59.04
2022-09-15T20:08:05.974Z,59.14
2022-09-15T20:09:12.550Z,58.98
2022-09-15T20:10:19.315Z,59.14
2022-09-15T20:11:25.922Z,59.06
2022-09-15T20:12:34.058Z,59.02
2022-09-15T20:13:40.622Z,58.72
2022-09-15T20:14:47.198Z,59.05
2022-09-15T20:15:52.477Z,59.04
2022-09-15T20:17:05.130Z,59.26
2022-09-15T20:18:13.533Z,59
2022-09-15T20:19:20.034Z,59.27
2022-09-15T20:20:27.557Z,59.24
2022-09-15T20:21:54.497Z,59.21
2022-09-15T20:23:03.335Z,59.24
2022-09-15T20:24:20.628Z,58.82
2022-09-15T20:25:27.156Z,58.63
2022-09-15T20:26:33.411Z,58.79
2022-09-15T20:27:40.001Z,59.24
2022-09-15T20:28:47.239Z,58.69
2022-09-15T20:29:53.660Z,59.18
2022-09-15T20:30:59.685Z,59.26
2022-09-15T20:32:06.030Z,59.15
2022-09-15T20:33:12.410Z,59.25
2022-09-15T20:34:19.113Z,59.24
2022-09-15T20:35:25.429Z,59.25
2022-09-15T20:36:31.718Z,59.32
2022-09-15T20:37:41.029Z,59.32
2022-09-15T20:38:49.008Z,59.3
2022-09-15T20:39:58.391Z,58.83
2022-09-15T20:41:04.663Z,59.21
2022-09-15T20:42:11.069Z,59.16
2022-09-15T20:43:17.366Z,59.36
2022-09-15T20:44:25.602Z,59.04
2022-09-15T20:45:37.332Z,59.39
2022-09-15T20:46:43.340Z,59.11
2022-09-15T20:47:48.307Z,59.32
2022-09-15T20:48:55.186Z,59.17
2022-09-15T20:50:01.385Z,58.82
2022-09-15T20:51:08.903Z,59.13
2022-09-15T20:52:15.289Z,59.27
2022-09-15T20:53:21.608Z,59.04
2022-09-15T20:54:30.363Z,58.8
2022-09-15T20:55:36.009Z,59.23
2022-09-15T20:56:42.253Z,59.18
2022-09-15T20:57:47.918Z,59.36
2022-09-15T20:58:53.388Z,59.34
2022-09-15T20:59:58.932Z,59.51
2022-09-15T21:01:04.916Z,59.3
2022-09-15T21:02:10.258Z,59.58
2022-09-15T21:03:15.677Z,59.51
2022-09-15T21:04:22.483Z,59.62
2022-09-15T21:05:27.638Z,59.43
2022-09-15T21:06:32.690Z,59.55
2022-09-15T21:07:38.617Z,59.46
2022-09-15T21:08:45.732Z,59.69
2022-09-15T21:09:50.853Z,59.31
2022-09-15T21:10:55.736Z,59.28
2022-09-15T21:12:00.387Z,59.28
2022-09-15T21:13:04.748Z,59.39
2022-09-15T21:14:09.160Z,59.45
2022-09-15T21:15:13.629Z,58.97
2022-09-15T21:16:18.235Z,59.5
2022-09-15T21:17:22.653Z,59.17
2022-09-15T21:18:27.061Z,58.99
2022-09-15T21:19:31.432Z,58.76
2022-09-15T21:20:35.851Z,59.06
2022-09-15T21:21:40.234Z,59.25
2022-09-15T21:22:44.624Z,59.24
2022-09-15T21:23:49.067Z,59.29
2022-09-15T21:24:53.451Z,59.4
2022-09-15T21:26:03.389Z,59.37
2022-09-15T21:27:07.822Z,59.08
2022-09-15T21:28:12.233Z,59.13
2022-09-15T21:29:16.664Z,59.34
2022-09-15T21:30:21.056Z,59.44
2022-09-15T21:31:25.686Z,59.53
2022-09-15T21:32:30.133Z,59.35
2022-09-15T21:33:34.503Z,59.48
2022-09-15T21:34:38.911Z,59.45
2022-09-15T21:35:43.297Z,59.5
2022-09-15T21:36:47.707Z,59.56
2022-09-15T21:37:52.131Z,59.65
2022-09-15T21:38:56.788Z,59.56
2022-09-15T21:40:01.450Z,59.68
2022-09-15T21:41:05.881Z,59.54
2022-09-15T21:42:10.513Z,59.2
2022-09-15T21:43:14.892Z,59.38
2022-09-15T21:44:19.301Z,59.69
2022-09-15T21:45:23.810Z,59.56
2022-09-15T21:46:28.230Z,59.53
2022-09-15T21:47:32.586Z,59.79
2022-09-15T21:48:36.956Z,59.73
2022-09-15T21:49:41.374Z,59.66
2022-09-15T21:50:45.749Z,59.58
2022-09-15T21:51:50.129Z,59.41
2022-09-15T21:52:54.581Z,59.63
2022-09-15T21:53:58.994Z,59.3
2022-09-15T21:55:03.413Z,59.62
2022-09-15T21:56:07.825Z,59.69
2022-09-15T21:57:12.213Z,59.8
2022-09-15T21:58:16.566Z,59.69
2022-09-15T21:59:20.970Z,59.8
2022-09-15T22:00:25.353Z,59.8
2022-09-15T22:01:30.224Z,59.79
2022-09-15T22:02:34.828Z,59.66
2022-09-15T22:03:39.227Z,59.67
2022-09-15T22:04:43.642Z,59.55
2022-09-15T22:05:48.057Z,59.55
2022-09-15T22:06:52.452Z,59.61
2022-09-15T22:07:58.678Z,59.37
2022-09-15T22:09:04.867Z,59.92
2022-09-15T22:10:09.257Z,60.02
2022-09-15T22:11:13.678Z,59.85
2022-09-15T22:12:18.059Z,59.83
2022-09-15T22:13:22.478Z,60.04
2022-09-15T22:14:26.917Z,60.01
2022-09-15T22:15:31.348Z,60.04
2022-09-15T22:16:38.576Z,59.77
2022-09-15T22:17:45.853Z,60.08
2022-09-15T22:18:50.300Z,60.04
2022-09-15T22:19:54.700Z,60.08
2022-09-15T22:20:59.143Z,59.96
2022-09-15T22:22:03.553Z,60.03
2022-09-15T22:23:07.952Z,60.1
2022-09-15T22:24:13.092Z,59.44
2022-09-15T22:25:23.270Z,60.06
2022-09-15T22:26:27.697Z,60.19
2022-09-15T22:27:32.111Z,60.27
2022-09-15T22:28:36.520Z,60.07
2022-09-15T22:29:40.966Z,60.2
2022-09-15T22:30:45.365Z,60.27
2022-09-15T22:31:50.004Z,60.37
2022-09-15T22:32:54.448Z,59.81
2022-09-15T22:33:58.832Z,60.27
2022-09-15T22:35:03.296Z,60.32
2022-09-15T22:36:07.709Z,60.37
2022-09-15T22:37:12.109Z,60.34
2022-09-15T22:38:16.509Z,60.44
2022-09-15T22:39:20.942Z,60.22
2022-09-15T22:40:25.620Z,60.33
2022-09-15T22:41:30.055Z,60.46
2022-09-15T22:42:34.455Z,59.99
2022-09-15T22:43:38.947Z,60.2
2022-09-15T22:44:43.326Z,60.37
2022-09-15T22:45:50.265Z,60.41
2022-09-15T22:46:54.677Z,60.39
2022-09-15T22:47:59.078Z,60.22
2022-09-15T22:49:03.490Z,60.38
2022-09-15T22:50:07.928Z,60.47
2022-09-15T22:51:12.333Z,60.46
2022-09-15T22:52:16.724Z,60.51
2022-09-15T22:53:21.138Z,60.27
2022-09-15T22:54:25.835Z,60.49
2022-09-15T22:55:30.264Z,60.52
2022-09-15T22:56:35.180Z,60.55
2022-09-15T22:57:39.566Z,60.41
2022-09-15T22:58:44.087Z,60.64
2022-09-15T22:59:48.517Z,60.55
2022-09-15T23:00:53.063Z,60.71
2022-09-15T23:01:57.711Z,60.6
2022-09-15T23:03:01.979Z,60.57
2022-09-15T23:04:06.197Z,60.55
2022-09-15T23:05:10.428Z,60.49
2022-09-15T23:06:14.618Z,60.84
2022-09-15T23:07:18.858Z,60.79
2022-09-15T23:08:23.077Z,60.68
2022-09-15T23:09:27.331Z,60.71
2022-09-15T23:10:31.783Z,60.56
2022-09-15T23:11:36.034Z,60.78
2022-09-15T23:12:40.259Z,60.71
2022-09-15T23:13:44.516Z,60.48
2022-09-15T23:14:49.187Z,61.13
2022-09-15T23:15:53.597Z,61.01
2022-09-15T23:16:57.794Z,61.17
2022-09-15T23:18:02.021Z,60.69
2022-09-15T23:19:06.246Z,61.1
2022-09-15T23:20:10.477Z,61.31
2022-09-15T23:21:14.708Z,61.26
2022-09-15T23:22:18.912Z,61.39
2022-09-15T23:23:23.154Z,61.28
2022-09-15T23:24:27.327Z,61.12
2022-09-15T23:25:31.530Z,61.47
2022-09-15T23:26:35.732Z,60.96
2022-09-15T23:27:39.944Z,61.39
2022-09-15T23:28:44.290Z,61.53
2022-09-15T23:29:48.711Z,61.03
2022-09-15T23:30:52.925Z,61.71
2022-09-15T23:31:57.272Z,60.95
2022-09-15T23:33:01.492Z,61.57
2022-09-15T23:34:05.711Z,61.45
2022-09-15T23:35:09.911Z,61.87
2022-09-15T23:36:14.127Z,61.79
2022-09-15T23:37:18.326Z,61.71
2022-09-15T23:38:22.554Z,62.08
2022-09-15T23:39:26.777Z,61.99
2022-09-15T23:40:31.255Z,62.17
2022-09-15T23:41:35.530Z,62.18
2022-09-15T23:42:39.758Z,62.33
2022-09-15T23:43:43.976Z,62.3
2022-09-15T23:44:48.173Z,62.29
2022-09-15T23:45:52.395Z,62.07
2022-09-15T23:46:56.833Z,62.41
2022-09-15T23:48:01.107Z,62.37
2022-09-15T23:49:05.353Z,62.3
2022-09-15T23:50:09.593Z,62.56
2022-09-15T23:51:13.805Z,62.32
2022-09-15T23:52:19.065Z,62.46
2022-09-15T23:53:23.278Z,62.31
2022-09-15T23:54:27.481Z,62.04
2022-09-15T23:55:31.693Z,62.36
2022-09-15T23:56:35.913Z,62.48
2022-09-15T23:57:40.146Z,62.61
2022-09-15T23:58:44.353Z,62.38
2022-09-15T23:59:48.540Z,62.49
